createdAt,value
2018-11-04T00:00:10.130Z,17.3
2018-11-04T00:00:59.960Z,17.3
2018-11-04T00:01:51.307Z,17.3
2018-11-04T00:02:41.100Z,17.3
2018-11-04T00:03:31.257Z,17.3
2018-11-04T00:04:19.950Z,17.3
2018-11-04T00:05:10.258Z,17.3
2018-11-04T00:06:00.648Z,17.3
2018-11-04T00:06:51.337Z,17.3
2018-11-04T00:25:05.303Z,17.3
2018-11-04T00:25:55.116Z,17.3
2018-11-04T00:26:44.267Z,17.3
2018-11-04T00:27:35.164Z,17.3
2018-11-04T00:28:24.989Z,17.3
2018-11-04T00:29:15.013Z,17.3
2018-11-04T00:30:06.370Z,17.3
2018-11-04T00:30:55.498Z,17.3
2018-11-04T00:31:45.029Z,17.3
2018-11-04T00:32:34.846Z,17.3
2018-11-04T00:33:24.633Z,17.3
2018-11-04T00:34:15.589Z,17.3
2018-11-04T00:35:06.036Z,17.3
2018-11-04T00:35:57.112Z,17.3
2018-11-04T00:36:44.768Z,17.3
2018-11-04T00:37:36.469Z,17.3
2018-11-04T00:38:25.068Z,17.3
2018-11-04T00:39:16.617Z,17.3
2018-11-04T00:40:05.558Z,17.3
2018-11-04T00:40:56.033Z,17.3
2018-11-04T00:41:45.637Z,17.3
2018-11-04T00:42:35.290Z,17.3
2018-11-04T00:43:26.320Z,17.3
2018-11-04T00:44:15.742Z,17.3
2018-11-04T00:45:06.348Z,17.3
2018-11-04T00:45:56.432Z,17.3
2018-11-04T00:46:46.362Z,17.3
2018-11-04T00:47:36.617Z,17.3
2018-11-04T00:48:26.638Z,17.3
2018-11-04T00:49:16.759Z,17.3
2018-11-04T00:50:07.852Z,17.3
2018-11-04T00:50:57.134Z,17.3
2018-11-04T00:51:47.922Z,17.3
2018-11-04T00:52:37.264Z,17.3
2018-11-04T00:53:27.573Z,17.3
2018-11-04T00:54:16.616Z,17.3
2018-11-04T00:55:06.836Z,17.3
2018-11-04T00:55:55.913Z,17.3
2018-11-04T00:56:47.583Z,17.3
2018-11-04T00:57:36.528Z,17.3
2018-11-04T00:58:27.999Z,17.3
2018-11-04T00:59:16.096Z,17.3
2018-11-04T01:00:07.999Z,17.3
2018-11-04T01:00:58.351Z,17.3
2018-11-04T01:01:47.166Z,17.3
2018-11-04T01:02:37.948Z,17.3
2018-11-04T01:03:27.209Z,17.3
2018-11-04T01:04:17.016Z,17.3
2018-11-04T01:05:08.366Z,17.3
2018-11-04T01:05:58.031Z,17.3
2018-11-04T01:06:48.327Z,17.3
2018-11-04T01:07:37.966Z,17.3
2018-11-04T01:08:28.961Z,17.3
2018-11-04T01:09:20.403Z,17.3
2018-11-04T01:10:23.123Z,17.3
2018-11-04T01:10:57.464Z,17.3
2018-11-04T01:11:47.805Z,17.3
2018-11-04T01:12:38.863Z,17.2
2018-11-04T01:13:28.510Z,17.3
2018-11-04T01:14:17.420Z,17.3
2018-11-04T01:15:08.231Z,17.3
2018-11-04T01:15:59.935Z,17.3
2018-11-04T01:16:48.574Z,17.3
2018-11-04T01:17:40.276Z,17.3
2018-11-04T01:18:28.495Z,17.3
2018-11-04T01:19:18.129Z,17.3
2018-11-04T01:20:09.760Z,17.2
2018-11-04T01:20:59.438Z,17.3
2018-11-04T01:21:49.545Z,17.3
2018-11-04T01:22:39.100Z,17.3
2018-11-04T01:23:29.725Z,17.3
2018-11-04T01:24:21.004Z,17.3
2018-11-04T01:25:09.969Z,17.2
2018-11-04T01:26:00.635Z,17.2
2018-11-04T01:26:50.481Z,17.3
2018-11-04T01:27:38.824Z,17.2
2018-11-04T01:28:29.770Z,17.2
2018-11-04T01:29:19.269Z,17.3
2018-11-04T01:30:10.136Z,17.3
2018-11-04T01:30:59.312Z,17.2
2018-11-04T01:31:49.249Z,17.2
2018-11-04T01:32:40.327Z,17.3
2018-11-04T01:33:30.314Z,17.3
2018-11-04T01:34:19.111Z,17.3
2018-11-04T01:35:10.462Z,17.2
2018-11-04T01:35:58.876Z,17.2
2018-11-04T01:36:49.651Z,17.2
2018-11-04T01:37:39.832Z,17.2
2018-11-04T01:38:28.904Z,17.2
2018-11-04T01:39:19.537Z,17.2
2018-11-04T01:40:10.649Z,17.3
2018-11-04T01:40:59.343Z,17.2
2018-11-04T01:41:50.784Z,17.2
2018-11-04T01:42:40.945Z,17.2
2018-11-04T01:43:30.335Z,17.2
2018-11-04T01:44:20.157Z,17.3
2018-11-04T01:45:10.518Z,17.2
2018-11-04T01:45:59.988Z,17.2
2018-11-04T01:46:50.958Z,17.2
2018-11-04T01:47:41.568Z,17.2
2018-11-04T01:48:30.996Z,17.2
2018-11-04T01:49:20.919Z,17.2
2018-11-04T01:50:11.630Z,17.2
2018-11-04T01:51:00.750Z,17.2
2018-11-04T01:51:52.596Z,17.2
2018-11-04T01:52:40.385Z,17.2
2018-11-04T01:53:31.948Z,17.2
2018-11-04T01:54:21.171Z,17.2
2018-11-04T01:55:10.965Z,17.2
2018-11-04T01:56:01.895Z,17.2
2018-11-04T01:56:52.315Z,17.2
2018-11-04T01:57:42.178Z,17.2
2018-11-04T01:58:31.556Z,17.2
2018-11-04T01:59:21.478Z,17.2
2018-11-04T02:00:11.099Z,17.2
2018-11-04T02:01:02.731Z,17.2
2018-11-04T02:01:51.732Z,17.2
2018-11-04T02:02:43.075Z,17.2
2018-11-04T02:03:31.175Z,17.2
2018-11-04T02:04:22.657Z,17.2
2018-11-04T02:05:12.425Z,17.2
2018-11-04T02:06:01.980Z,17.2
2018-11-04T02:06:51.304Z,17.2
2018-11-04T02:07:41.628Z,17.2
2018-11-04T02:08:32.605Z,17.2
2018-11-04T02:09:22.745Z,17.2
2018-11-04T02:10:12.101Z,17.2
2018-11-04T02:11:02.344Z,17.2
2018-11-04T02:11:53.120Z,17.2
2018-11-04T02:12:42.203Z,17.2
2018-11-04T02:13:33.332Z,17.2
2018-11-04T02:14:23.435Z,17.2
2018-11-04T02:15:12.847Z,17.2
2018-11-04T02:16:03.537Z,17.2
2018-11-04T02:16:53.014Z,17.2
2018-11-04T02:17:43.861Z,17.2
2018-11-04T02:18:34.404Z,17.2
2018-11-04T02:19:22.699Z,17.2
2018-11-04T02:20:13.386Z,17.2
2018-11-04T02:21:02.854Z,17.2
2018-11-04T02:21:52.907Z,17.2
2018-11-04T02:22:42.704Z,17.2
2018-11-04T02:23:33.351Z,17.2
2018-11-04T02:24:23.716Z,17.2
2018-11-04T02:25:14.107Z,17.2
2018-11-04T02:26:03.360Z,17.2
2018-11-04T02:26:52.382Z,17.2
2018-11-04T02:27:44.797Z,17.2
2018-11-04T02:28:33.837Z,17.2
2018-11-04T02:29:24.246Z,17.1
2018-11-04T02:30:15.204Z,17.2
2018-11-04T02:31:03.280Z,17.2
2018-11-04T02:31:54.131Z,17.2
2018-11-04T02:32:44.501Z,17.1
2018-11-04T02:33:34.494Z,17.1
2018-11-04T02:34:23.641Z,17.1
2018-11-04T02:35:14.012Z,17.2
2018-11-04T02:36:03.858Z,17.2
2018-11-04T02:36:53.943Z,17.2
2018-11-04T02:37:44.797Z,17.1
2018-11-04T02:38:34.076Z,17.2
2018-11-04T02:39:25.235Z,17.1
2018-11-04T02:40:14.465Z,17.2
2018-11-04T02:41:04.408Z,17.1
2018-11-04T02:41:54.808Z,17.2
2018-11-04T02:42:43.815Z,17.1
2018-11-04T02:43:34.885Z,17.2
2018-11-04T02:44:25.031Z,17.1
2018-11-04T02:45:14.560Z,17.1
2018-11-04T02:46:04.944Z,17.2
2018-11-04T02:46:55.957Z,17.1
2018-11-04T02:47:45.227Z,17.1
2018-11-04T02:48:34.634Z,17.1
2018-11-04T02:49:24.273Z,17.1
2018-11-04T02:50:15.255Z,17.1
2018-11-04T02:51:05.775Z,17.1
2018-11-04T02:51:55.444Z,17.1
2018-11-04T02:52:45.553Z,17.1
2018-11-04T02:53:36.833Z,17.1
2018-11-04T02:54:26.029Z,17.1
2018-11-04T02:55:16.299Z,17.1
2018-11-04T02:56:06.363Z,17.1
2018-11-04T02:56:55.468Z,17.1
2018-11-04T02:57:46.593Z,17.1
2018-11-04T02:58:36.288Z,17.1
2018-11-04T02:59:26.580Z,17.1
2018-11-04T03:00:16.660Z,17.1
2018-11-04T03:01:06.659Z,17.1
2018-11-04T03:01:57.642Z,17.1
2018-11-04T03:02:46.667Z,17.1
2018-11-04T03:03:35.588Z,17.1
2018-11-04T03:04:26.394Z,17.1
2018-11-04T03:05:16.885Z,17.1
2018-11-04T03:06:05.204Z,17.1
2018-11-04T03:06:56.922Z,17.1
2018-11-04T03:07:47.327Z,17.1
2018-11-04T03:08:37.044Z,17.1
2018-11-04T03:09:26.954Z,17.1
2018-11-04T03:10:16.126Z,17.1
2018-11-04T03:11:06.386Z,17.1
2018-11-04T03:11:56.402Z,17.1
2018-11-04T03:12:47.506Z,17.1
2018-11-04T03:13:36.979Z,17.1
2018-11-04T03:14:26.163Z,17.1
2018-11-04T03:15:17.163Z,17.1
2018-11-04T03:16:07.521Z,17.1
2018-11-04T03:16:56.511Z,17.1
2018-11-04T03:17:46.936Z,17.1
2018-11-04T03:18:36.681Z,17.1
2018-11-04T03:19:26.873Z,17.1
2018-11-04T03:20:18.116Z,17.1
2018-11-04T03:21:07.389Z,17.1
2018-11-04T03:21:58.322Z,17.1
2018-11-04T03:22:48.835Z,17.1
2018-11-04T03:23:37.459Z,17.1
2018-11-04T03:24:28.526Z,17.1
2018-11-04T03:25:17.983Z,17.1
2018-11-04T03:26:07.825Z,17.1
2018-11-04T03:26:57.443Z,17.1
2018-11-04T03:27:48.368Z,17.1
2018-11-04T03:28:37.687Z,17.1
2018-11-04T03:29:28.346Z,17.1
2018-11-04T03:30:18.829Z,17.1
2018-11-04T03:31:08.685Z,17.1
2018-11-04T03:31:59.560Z,17.1
2018-11-04T03:32:49.375Z,17.1
2018-11-04T03:33:39.410Z,17.1
2018-11-04T03:34:27.787Z,17.1
2018-11-04T03:35:19.280Z,17.1
2018-11-04T03:36:07.950Z,17.1
2018-11-04T03:36:58.463Z,17.1
2018-11-04T03:37:48.217Z,17.1
2018-11-04T03:38:39.245Z,17.1
2018-11-04T03:39:28.885Z,17.1
2018-11-04T03:40:19.164Z,17.1
2018-11-04T03:41:08.642Z,17.1
2018-11-04T03:41:58.472Z,17.1
2018-11-04T03:42:49.963Z,17.1
2018-11-04T03:43:39.259Z,17.1
2018-11-04T03:44:29.060Z,17.1
2018-11-04T03:45:19.623Z,17.1
2018-11-04T03:46:09.814Z,17.1
2018-11-04T03:47:00.393Z,17.1
2018-11-04T03:47:49.194Z,17.1
2018-11-04T03:48:38.807Z,17.1
2018-11-04T03:49:28.592Z,17.1
2018-11-04T03:51:09.540Z,17.1
2018-11-04T03:51:59.891Z,17.1
2018-11-04T03:56:59.248Z,17.1
2018-11-04T03:58:39.423Z,17.1
2018-11-04T04:12:50.609Z,16.9
2018-11-04T04:17:51.380Z,16.9
2018-11-04T04:20:21.597Z,16.9
2018-11-04T04:21:11.605Z,16.9
2018-11-04T04:22:02.042Z,16.9
2018-11-04T04:22:52.563Z,16.9
2018-11-04T04:23:41.982Z,16.9
2018-11-04T04:24:31.365Z,16.9
2018-11-04T04:25:22.501Z,16.9
2018-11-04T04:26:10.519Z,16.9
2018-11-04T04:27:02.841Z,16.9
2018-11-04T04:27:53.516Z,16.9
2018-11-04T04:28:42.287Z,16.9
2018-11-04T04:29:31.819Z,16.9
2018-11-04T04:30:23.214Z,16.9
2018-11-04T04:31:12.933Z,16.9
2018-11-04T04:32:02.900Z,16.9
2018-11-04T04:32:52.544Z,16.9
2018-11-04T04:33:41.931Z,16.9
2018-11-04T04:34:32.906Z,16.9
2018-11-04T04:35:22.122Z,16.9
2018-11-04T04:36:12.656Z,16.9
2018-11-04T04:54:14.808Z,16.9
2018-11-04T04:55:04.885Z,16.9
2018-11-04T04:55:55.724Z,16.9
2018-11-04T04:56:45.752Z,16.9
2018-11-04T04:57:35.721Z,16.9
2018-11-04T04:58:25.588Z,16.9
2018-11-04T04:59:14.844Z,16.9
2018-11-04T05:00:06.144Z,16.9
2018-11-04T05:00:55.654Z,16.9
2018-11-04T05:01:46.000Z,16.9
2018-11-04T05:02:35.604Z,16.9
2018-11-04T05:03:25.089Z,16.9
2018-11-04T05:04:15.542Z,16.8
2018-11-04T05:05:06.217Z,16.9
2018-11-04T05:05:53.894Z,16.9
2018-11-04T05:06:45.704Z,16.9
2018-11-04T05:07:35.922Z,16.9
2018-11-04T05:08:26.691Z,16.8
2018-11-04T05:09:16.324Z,16.8
2018-11-04T05:10:07.064Z,16.9
2018-11-04T05:10:56.279Z,16.9
2018-11-04T05:11:45.659Z,16.9
2018-11-04T05:12:36.086Z,16.9
2018-11-04T05:13:26.700Z,16.8
2018-11-04T05:14:17.281Z,16.8
2018-11-04T05:15:06.839Z,16.8
2018-11-04T05:15:55.903Z,16.8
2018-11-04T05:16:47.138Z,16.8
2018-11-04T05:17:36.046Z,16.8
2018-11-04T05:18:26.566Z,16.8
2018-11-04T05:19:16.348Z,16.8
2018-11-04T05:20:07.731Z,16.8
2018-11-04T05:20:57.465Z,16.8
2018-11-04T05:21:48.073Z,16.8
2018-11-04T05:22:37.013Z,16.8
2018-11-04T05:23:28.226Z,16.8
2018-11-04T05:24:17.107Z,16.8
2018-11-04T05:25:07.944Z,16.8
2018-11-04T05:25:56.944Z,16.8
2018-11-04T05:26:47.763Z,16.8
2018-11-04T05:27:37.412Z,16.8
2018-11-04T05:28:27.022Z,16.8
2018-11-04T05:29:17.179Z,16.8
2018-11-04T05:30:07.703Z,16.8
2018-11-04T05:30:57.028Z,16.8
2018-11-04T05:31:48.028Z,16.8
2018-11-04T05:32:37.525Z,16.8
2018-11-04T05:33:27.367Z,16.8
2018-11-04T05:34:17.807Z,16.8
2018-11-04T05:35:07.842Z,16.8
2018-11-04T05:35:59.102Z,16.8
2018-11-04T05:36:48.115Z,16.8
2018-11-04T05:37:38.517Z,16.8
2018-11-04T05:38:29.911Z,16.8
2018-11-04T05:39:18.777Z,16.8
2018-11-04T05:40:08.942Z,16.8
2018-11-04T05:40:59.432Z,16.8
2018-11-04T05:41:47.827Z,16.8
2018-11-04T05:42:38.146Z,16.8
2018-11-04T05:43:29.456Z,16.8
2018-11-04T05:44:18.034Z,16.8
2018-11-04T05:45:08.667Z,16.8
2018-11-04T05:45:58.697Z,16.8
2018-11-04T05:46:49.639Z,16.8
2018-11-04T05:47:38.581Z,16.8
2018-11-04T05:48:29.507Z,16.8
2018-11-04T05:49:19.614Z,16.8
2018-11-04T05:50:09.357Z,16.8
2018-11-04T05:50:59.865Z,16.8
2018-11-04T05:51:49.248Z,16.8
2018-11-04T05:52:39.776Z,16.8
2018-11-04T05:53:29.650Z,16.8
2018-11-04T05:54:19.202Z,16.8
2018-11-04T05:55:09.667Z,16.8
2018-11-04T05:55:59.867Z,16.8
2018-11-04T05:56:49.116Z,16.8
2018-11-04T05:57:39.623Z,16.8
2018-11-04T05:58:29.784Z,16.8
2018-11-04T05:59:19.263Z,16.8
2018-11-04T06:00:08.372Z,16.8
2018-11-04T06:01:00.657Z,16.8
2018-11-04T06:01:49.642Z,16.8
2018-11-04T06:02:40.027Z,16.8
2018-11-04T06:03:30.381Z,16.8
2018-11-04T06:04:19.454Z,16.8
2018-11-04T06:05:10.475Z,16.8
2018-11-04T06:06:01.016Z,16.8
2018-11-04T06:06:49.966Z,16.8
2018-11-04T06:07:41.059Z,16.8
2018-11-04T06:08:30.311Z,16.7
2018-11-04T06:09:20.395Z,16.8
2018-11-04T06:10:09.917Z,16.8
2018-11-04T06:11:00.884Z,16.8
2018-11-04T06:11:50.374Z,16.8
2018-11-04T06:12:39.889Z,16.8
2018-11-04T06:13:30.359Z,16.8
2018-11-04T06:14:20.376Z,16.8
2018-11-04T06:15:09.705Z,16.8
2018-11-04T06:16:00.739Z,16.8
2018-11-04T06:16:51.753Z,16.8
2018-11-04T06:17:41.248Z,16.8
2018-11-04T06:18:31.025Z,16.8
2018-11-04T06:19:21.950Z,16.8
2018-11-04T06:20:10.238Z,16.8
2018-11-04T06:21:00.936Z,16.8
2018-11-04T06:21:51.478Z,16.8
2018-11-04T06:22:42.394Z,16.8
2018-11-04T06:23:30.905Z,16.8
2018-11-04T06:24:21.925Z,16.8
2018-11-04T06:25:11.258Z,16.7
2018-11-04T06:26:02.529Z,16.8
2018-11-04T06:26:51.895Z,16.8
2018-11-04T06:27:41.982Z,16.8
2018-11-04T06:28:32.589Z,16.7
2018-11-04T06:29:22.586Z,16.7
2018-11-04T06:30:12.163Z,16.7
2018-11-04T06:31:02.169Z,16.7
2018-11-04T06:31:51.930Z,16.7
2018-11-04T06:32:42.203Z,16.8
2018-11-04T06:33:32.143Z,16.8
2018-11-04T06:34:22.297Z,16.8
2018-11-04T06:35:13.610Z,16.7
2018-11-04T06:36:01.929Z,16.8
2018-11-04T06:36:52.004Z,16.7
2018-11-04T06:37:42.894Z,16.8
2018-11-04T06:38:32.972Z,16.7
2018-11-04T06:39:23.592Z,16.8
2018-11-04T06:40:13.224Z,16.8
2018-11-04T06:41:03.507Z,16.8
2018-11-04T06:41:52.480Z,16.8
2018-11-04T06:42:42.101Z,16.8
2018-11-04T06:43:33.142Z,16.7
2018-11-04T06:44:22.809Z,16.8
2018-11-04T06:45:13.451Z,16.8
2018-11-04T06:46:02.740Z,16.8
2018-11-04T06:46:54.489Z,16.8
2018-11-04T06:47:45.752Z,16.8
2018-11-04T06:48:33.706Z,16.8
2018-11-04T06:49:23.578Z,16.8
2018-11-04T06:50:13.549Z,16.8
2018-11-04T06:51:03.278Z,16.8
2018-11-04T06:51:54.581Z,16.8
2018-11-04T06:52:43.201Z,16.8
2018-11-04T06:53:34.070Z,16.8
2018-11-04T06:54:23.311Z,16.8
2018-11-04T06:55:13.909Z,16.8
2018-11-04T06:56:03.550Z,16.8
2018-11-04T06:56:54.073Z,16.8
2018-11-04T06:57:44.717Z,16.8
2018-11-04T06:58:34.774Z,16.8
2018-11-04T06:59:24.473Z,16.8
2018-11-04T07:00:15.313Z,16.8
2018-11-04T07:01:04.044Z,16.8
2018-11-04T07:01:53.661Z,16.8
2018-11-04T07:02:45.096Z,16.8
2018-11-04T07:03:33.263Z,16.8
2018-11-04T07:04:21.817Z,16.8
2018-11-04T07:05:15.530Z,16.8
2018-11-04T07:06:04.345Z,16.8
2018-11-04T07:06:54.476Z,16.8
2018-11-04T07:07:44.172Z,16.8
2018-11-04T07:08:34.795Z,16.8
2018-11-04T07:09:24.921Z,16.8
2018-11-04T07:10:15.835Z,16.8
2018-11-04T07:11:04.787Z,16.8
2018-11-04T07:11:54.540Z,16.8
2018-11-04T07:12:44.923Z,16.8
2018-11-04T07:13:35.185Z,16.8
2018-11-04T07:14:25.558Z,16.8
2018-11-04T07:15:15.107Z,16.8
2018-11-04T07:16:04.333Z,16.8
2018-11-04T07:16:54.607Z,16.8
2018-11-04T07:17:44.541Z,16.8
2018-11-04T07:18:34.382Z,16.8
2018-11-04T07:19:25.092Z,16.8
2018-11-04T07:20:15.836Z,16.8
2018-11-04T07:21:05.252Z,16.8
2018-11-04T07:21:55.454Z,16.8
2018-11-04T07:22:44.748Z,16.8
2018-11-04T07:23:35.920Z,16.8
2018-11-04T07:24:26.365Z,16.8
2018-11-04T07:25:14.840Z,16.8
2018-11-04T07:26:05.429Z,16.8
2018-11-04T07:26:56.507Z,16.8
2018-11-04T07:27:46.214Z,16.8
2018-11-04T07:28:37.157Z,16.8
2018-11-04T07:29:26.391Z,16.8
2018-11-04T07:30:15.714Z,16.8
2018-11-04T07:31:05.916Z,16.8
2018-11-04T07:31:56.352Z,16.8
2018-11-04T07:32:46.411Z,16.8
2018-11-04T07:33:36.696Z,16.8
2018-11-04T07:34:26.215Z,16.8
2018-11-04T07:35:16.029Z,16.8
2018-11-04T07:36:06.312Z,16.8
2018-11-04T07:36:56.668Z,16.8
2018-11-04T07:37:46.264Z,16.8
2018-11-04T07:38:36.961Z,16.8
2018-11-04T07:39:27.416Z,16.8
2018-11-04T07:40:16.355Z,16.8
2018-11-04T07:41:06.782Z,16.7
2018-11-04T07:41:58.356Z,16.7
2018-11-04T07:42:47.193Z,16.6
2018-11-04T07:43:37.992Z,16.5
2018-11-04T07:44:30.002Z,16.5
2018-11-04T07:45:17.249Z,16.5
2018-11-04T07:46:07.842Z,16.5
2018-11-04T07:46:57.866Z,16.5
2018-11-04T07:47:46.894Z,16.5
2018-11-04T07:48:38.047Z,16.4
2018-11-04T07:49:26.986Z,16.4
2018-11-04T07:50:17.150Z,16.4
2018-11-04T07:51:07.739Z,16.4
2018-11-04T07:51:58.329Z,16.4
2018-11-04T07:52:48.510Z,16.4
2018-11-04T07:53:38.429Z,16.4
2018-11-04T07:54:27.569Z,16.4
2018-11-04T07:55:18.241Z,16.3
2018-11-04T07:56:08.794Z,16.3
2018-11-04T07:56:59.512Z,16.2
2018-11-04T07:57:48.723Z,16.1
2018-11-04T07:58:38.711Z,16.1
2018-11-04T07:59:29.617Z,15.9
2018-11-04T08:00:19.416Z,15.9
2018-11-04T08:01:10.399Z,15.8
2018-11-04T08:01:58.774Z,15.8
2018-11-04T08:02:48.285Z,15.8
2018-11-04T08:03:39.355Z,15.9
2018-11-04T08:04:28.520Z,16
2018-11-04T08:05:19.215Z,16
2018-11-04T08:06:09.041Z,16.1
2018-11-04T08:06:58.617Z,16.1
2018-11-04T08:07:49.399Z,16.2
2018-11-04T08:08:39.010Z,16.2
2018-11-04T08:09:30.025Z,16.3
2018-11-04T08:10:19.877Z,16.3
2018-11-04T08:11:09.762Z,16.3
2018-11-04T08:11:59.964Z,16.3
2018-11-04T08:12:50.566Z,16.3
2018-11-04T08:13:40.982Z,16.3
2018-11-04T08:14:30.132Z,16.3
2018-11-04T08:15:18.572Z,16.3
2018-11-04T08:16:10.115Z,16.3
2018-11-04T08:17:00.396Z,16.4
2018-11-04T08:17:49.627Z,16.4
2018-11-04T08:18:40.204Z,16.4
2018-11-04T08:19:30.479Z,16.4
2018-11-04T08:20:19.094Z,16.4
2018-11-04T08:21:10.485Z,16.4
2018-11-04T08:22:00.298Z,16.4
2018-11-04T08:22:50.075Z,16.4
2018-11-04T08:23:40.058Z,16.4
2018-11-04T08:24:29.660Z,16.4
2018-11-04T08:25:19.684Z,16.4
2018-11-04T08:26:10.295Z,16.4
2018-11-04T08:27:01.105Z,16.4
2018-11-04T08:27:51.837Z,16.4
2018-11-04T08:28:39.432Z,16.4
2018-11-04T08:29:31.050Z,16.5
2018-11-04T08:30:20.397Z,16.4
2018-11-04T08:31:10.959Z,16.4
2018-11-04T08:32:00.632Z,16.4
2018-11-04T08:32:50.967Z,16.5
2018-11-04T08:33:40.110Z,16.5
2018-11-04T08:34:31.555Z,16.5
2018-11-04T08:35:21.149Z,16.5
2018-11-04T08:36:10.867Z,16.5
2018-11-04T08:37:01.507Z,16.5
2018-11-04T08:37:51.149Z,16.5
2018-11-04T08:38:42.220Z,16.5
2018-11-04T08:39:31.554Z,16.5
2018-11-04T08:40:23.581Z,16.5
2018-11-04T08:41:10.387Z,16.5
2018-11-04T08:42:01.351Z,16.5
2018-11-04T08:42:52.284Z,16.5
2018-11-04T08:43:40.984Z,16.6
2018-11-04T08:44:31.259Z,16.5
2018-11-04T08:45:21.856Z,16.5
2018-11-04T08:46:12.029Z,16.5
2018-11-04T08:47:00.764Z,16.5
2018-11-04T08:47:52.078Z,16.5
2018-11-04T08:48:42.038Z,16.6
2018-11-04T08:49:30.609Z,16.6
2018-11-04T08:50:22.026Z,16.6
2018-11-04T08:51:11.091Z,16.6
2018-11-04T08:52:03.453Z,16.6
2018-11-04T09:08:41.380Z,16.5
2018-11-04T09:09:31.251Z,16.6
2018-11-04T09:10:21.085Z,16.6
2018-11-04T09:11:10.712Z,16.6
2018-11-04T09:12:01.928Z,16.6
2018-11-04T09:12:51.887Z,16.6
2018-11-04T09:13:42.048Z,16.6
2018-11-04T09:14:33.294Z,16.6
2018-11-04T09:15:22.384Z,16.6
2018-11-04T09:16:11.622Z,16.6
2018-11-04T09:17:01.112Z,16.6
2018-11-04T09:17:52.382Z,16.6
2018-11-04T09:18:43.847Z,16.6
2018-11-04T09:19:32.253Z,16.6
2018-11-04T09:20:23.164Z,16.6
2018-11-04T09:21:11.619Z,16.6
2018-11-04T09:22:06.061Z,16.6
2018-11-04T09:22:52.433Z,16.6
2018-11-04T09:23:43.351Z,16.6
2018-11-04T09:24:32.910Z,16.6
2018-11-04T09:25:22.556Z,16.6
2018-11-04T09:26:12.619Z,16.6
2018-11-04T09:27:02.190Z,16.6
2018-11-04T09:27:52.989Z,16.6
2018-11-04T09:28:42.777Z,16.6
2018-11-04T09:29:33.739Z,16.6
2018-11-04T09:30:23.096Z,16.6
2018-11-04T09:31:12.911Z,16.6
2018-11-04T09:32:03.391Z,16.6
2018-11-04T09:32:53.394Z,16.6
2018-11-04T09:33:42.231Z,16.6
2018-11-04T09:34:32.803Z,16.6
2018-11-04T09:35:23.969Z,16.6
2018-11-04T09:36:15.465Z,16.6
2018-11-04T09:37:02.828Z,16.6
2018-11-04T09:37:53.262Z,16.6
2018-11-04T09:38:43.908Z,16.6
2018-11-04T09:39:33.276Z,16.6
2018-11-04T09:40:22.570Z,16.6
2018-11-04T09:41:12.653Z,16.6
2018-11-04T09:42:03.507Z,16.6
2018-11-04T09:42:53.895Z,16.6
2018-11-04T09:43:43.520Z,16.6
2018-11-04T09:44:34.283Z,16.6
2018-11-04T09:45:23.957Z,16.6
2018-11-04T09:46:13.775Z,16.6
2018-11-04T09:47:04.027Z,16.6
2018-11-04T09:47:53.755Z,16.6
2018-11-04T09:48:44.266Z,16.6
2018-11-04T09:49:35.305Z,16.6
2018-11-04T09:50:24.110Z,16.6
2018-11-04T09:51:14.198Z,16.6
2018-11-04T09:52:03.621Z,16.6
2018-11-04T09:52:54.158Z,16.6
2018-11-04T09:53:44.910Z,16.7
2018-11-04T09:54:34.610Z,16.7
2018-11-04T09:55:25.209Z,16.6
2018-11-04T09:56:15.002Z,16.7
2018-11-04T09:57:04.998Z,16.6
2018-11-04T09:57:54.746Z,16.7
2018-11-04T09:58:43.983Z,16.6
2018-11-04T09:59:34.958Z,16.7
2018-11-04T10:00:25.187Z,16.7
2018-11-04T10:01:14.970Z,16.7
2018-11-04T10:02:05.702Z,16.7
2018-11-04T10:02:55.212Z,16.7
2018-11-04T10:03:44.750Z,16.7
2018-11-04T10:04:35.107Z,16.7
2018-11-04T10:05:25.182Z,16.7
2018-11-04T10:06:15.665Z,16.7
2018-11-04T10:07:06.303Z,16.7
2018-11-04T10:07:55.021Z,16.7
2018-11-04T10:08:44.713Z,16.7
2018-11-04T10:09:35.867Z,16.7
2018-11-04T10:10:25.694Z,16.7
2018-11-04T10:11:15.849Z,16.7
2018-11-04T10:12:05.401Z,16.7
2018-11-04T10:12:56.113Z,16.7
2018-11-04T10:13:45.944Z,16.7
2018-11-04T10:14:35.552Z,16.7
2018-11-04T10:15:26.251Z,16.7
2018-11-04T10:16:17.308Z,16.7
2018-11-04T10:17:06.508Z,16.7
2018-11-04T10:17:56.316Z,16.7
2018-11-04T10:18:47.591Z,16.7
2018-11-04T10:19:37.642Z,16.7
2018-11-04T10:20:33.346Z,16.7
2018-11-04T10:21:17.561Z,16.7
2018-11-04T10:22:05.585Z,16.7
2018-11-04T10:22:56.053Z,16.7
2018-11-04T10:23:46.478Z,16.8
2018-11-04T10:24:36.823Z,16.8
2018-11-04T10:25:26.298Z,16.7
2018-11-04T10:26:16.633Z,16.7
2018-11-04T10:27:06.763Z,16.7
2018-11-04T10:27:56.597Z,16.7
2018-11-04T10:28:46.690Z,16.7
2018-11-04T10:29:38.055Z,16.7
2018-11-04T10:30:29.243Z,16.8
2018-11-04T10:31:16.876Z,16.8
2018-11-04T10:32:07.033Z,16.7
2018-11-04T10:32:56.642Z,16.8
2018-11-04T10:33:45.655Z,16.7
2018-11-04T10:34:37.508Z,16.8
2018-11-04T10:35:27.347Z,16.8
2018-11-04T10:36:19.119Z,16.7
2018-11-04T10:37:08.709Z,16.7
2018-11-04T10:37:59.285Z,16.7
2018-11-04T10:38:47.270Z,16.8
2018-11-04T10:39:37.785Z,16.8
2018-11-04T10:40:27.100Z,16.8
2018-11-04T10:41:18.602Z,16.8
2018-11-04T10:42:08.133Z,16.8
2018-11-04T10:42:58.297Z,16.8
2018-11-04T10:43:48.406Z,16.8
2018-11-04T10:44:38.733Z,16.8
2018-11-04T10:45:28.789Z,16.8
2018-11-04T10:46:18.934Z,16.8
2018-11-04T10:47:08.854Z,16.8
2018-11-04T10:47:59.171Z,16.8
2018-11-04T10:48:47.825Z,16.8
2018-11-04T10:49:40.356Z,16.8
2018-11-04T10:50:27.677Z,16.8
2018-11-04T10:51:18.881Z,16.8
2018-11-04T10:52:08.748Z,16.8
2018-11-04T10:52:59.177Z,16.8
2018-11-04T10:53:49.463Z,16.8
2018-11-04T10:54:39.383Z,16.8
2018-11-04T10:55:28.047Z,16.8
2018-11-04T10:56:18.419Z,16.8
2018-11-04T10:57:09.868Z,16.8
2018-11-04T10:57:59.169Z,16.8
2018-11-04T10:58:48.729Z,16.8
2018-11-04T10:59:38.014Z,16.8
2018-11-04T11:00:29.086Z,16.8
2018-11-04T11:01:19.678Z,16.8
2018-11-04T11:02:09.704Z,16.8
2018-11-04T11:02:59.496Z,16.8
2018-11-04T11:03:49.744Z,16.8
2018-11-04T11:04:40.632Z,16.8
2018-11-04T11:05:30.451Z,16.8
2018-11-04T11:06:21.318Z,16.8
2018-11-04T11:07:10.588Z,16.8
2018-11-04T11:08:00.249Z,16.8
2018-11-04T11:08:50.444Z,16.8
2018-11-04T11:09:40.283Z,16.8
2018-11-04T11:10:29.930Z,16.8
2018-11-04T11:11:19.363Z,16.8
2018-11-04T11:12:11.333Z,16.8
2018-11-04T11:12:59.643Z,16.8
2018-11-04T11:13:50.213Z,16.8
2018-11-04T11:14:39.879Z,16.8
2018-11-04T11:15:30.666Z,16.8
2018-11-04T11:16:20.788Z,16.8
2018-11-04T11:17:09.930Z,16.8
2018-11-04T11:17:59.760Z,16.8
2018-11-04T11:18:50.535Z,16.8
2018-11-04T11:19:40.198Z,16.8
2018-11-04T11:20:30.616Z,16.8
2018-11-04T11:21:21.028Z,16.8
2018-11-04T11:22:11.620Z,16.8
2018-11-04T11:23:05.179Z,16.8
2018-11-04T11:23:50.335Z,16.8
2018-11-04T11:24:41.195Z,16.8
2018-11-04T11:25:31.352Z,16.8
2018-11-04T11:26:21.307Z,16.8
2018-11-04T11:27:10.999Z,16.8
2018-11-04T11:28:01.477Z,16.8
2018-11-04T11:28:50.809Z,16.8
2018-11-04T11:29:41.454Z,16.8
2018-11-04T11:30:31.841Z,16.8
2018-11-04T11:31:21.182Z,16.8
2018-11-04T11:32:11.569Z,16.9
2018-11-04T11:32:58.881Z,16.9
2018-11-04T11:33:51.219Z,16.8
2018-11-04T11:34:41.505Z,16.8
2018-11-04T11:35:31.242Z,16.9
2018-11-04T11:36:22.884Z,16.8
2018-11-04T11:37:10.270Z,16.9
2018-11-04T11:38:04.677Z,16.9
2018-11-04T11:38:52.754Z,16.9
2018-11-04T11:39:42.252Z,16.9
2018-11-04T11:40:32.369Z,16.9
2018-11-04T11:41:21.512Z,16.9
2018-11-04T11:42:12.209Z,16.9
2018-11-04T11:43:02.701Z,16.9
2018-11-04T11:43:53.367Z,16.9
2018-11-04T11:44:42.194Z,16.9
2018-11-04T11:45:32.869Z,16.9
2018-11-04T11:46:22.496Z,16.9
2018-11-04T11:47:13.069Z,16.9
2018-11-04T11:48:01.932Z,16.9
2018-11-04T11:48:52.581Z,16.9
2018-11-04T11:49:41.420Z,16.9
2018-11-04T11:50:32.864Z,16.9
2018-11-04T11:51:23.051Z,16.9
2018-11-04T11:52:12.502Z,16.9
2018-11-04T11:53:01.766Z,16.9
2018-11-04T11:53:52.488Z,16.9
2018-11-04T11:54:43.675Z,16.9
2018-11-04T11:55:33.096Z,16.9
2018-11-04T11:56:22.552Z,16.9
2018-11-04T11:57:12.860Z,16.9
2018-11-04T11:58:02.459Z,16.9
2018-11-04T11:58:53.632Z,16.9
2018-11-04T11:59:43.894Z,16.9
2018-11-04T12:00:32.930Z,16.9
2018-11-04T12:01:22.928Z,16.9
2018-11-04T12:02:14.137Z,16.9
2018-11-04T12:03:03.238Z,16.9
2018-11-04T12:03:53.684Z,16.9
2018-11-04T12:04:44.432Z,16.9
2018-11-04T12:05:33.867Z,16.9
2018-11-04T12:06:23.737Z,16.9
2018-11-04T12:07:14.400Z,16.9
2018-11-04T12:08:03.749Z,16.9
2018-11-04T12:08:53.542Z,16.9
2018-11-04T12:09:44.702Z,16.9
2018-11-04T12:10:34.692Z,16.9
2018-11-04T12:11:24.301Z,16.9
2018-11-04T12:12:14.339Z,16.9
2018-11-04T12:13:05.216Z,16.9
2018-11-04T12:13:53.337Z,16.9
2018-11-04T12:14:43.793Z,16.9
2018-11-04T12:15:34.583Z,16.9
2018-11-04T12:16:24.896Z,16.9
2018-11-04T12:17:15.057Z,16.9
2018-11-04T12:18:05.346Z,16.9
2018-11-04T12:18:54.479Z,16.9
2018-11-04T12:19:44.378Z,16.9
2018-11-04T12:20:35.756Z,16.9
2018-11-04T12:21:24.916Z,16.9